Time;durP1;ratioP1;P1;durP2;ratioP2;P2;SDS_P1;SDS_P2;PMS_P1;PMS_P2;Temp;Humidity;BMP_temperature;BMP_pressure;BME280_temperature;BME280_humidity;BME280_pressure;Samples;Min_cycle;Max_cycle;Signal;HPM_P1;HPM_P2
2021/08/17 00:02:12;;;;;;;;;;;;;;;12.85;77.69;96732.84;5081665;28;20436;-82
2021/08/17 00:04:38;;;;;;;;;;;;;;;12.83;78.30;96737.53;5085847;28;20043;-81
2021/08/17 00:07:03;;;;;;;;;;;;;;;12.82;78.01;96735.94;5105738;28;19959;-83
2021/08/17 00:09:30;;;;;;;;;;;;;;;12.76;77.27;96727.91;5073812;28;19951;-83
2021/08/17 00:11:56;;;;;;;;;;;;;;;12.75;77.61;96723.69;5101898;28;19944;-82
2021/08/17 00:14:22;;;;;;;;;;;;;;;12.72;76.20;96723.31;5085006;28;19972;-82
2021/08/17 00:16:48;;;;;;;;;;;;;;;12.57;76.99;96727.16;5085678;28;20432;-82
2021/08/17 00:19:14;;;;;;;;;;;;;;;12.50;77.15;96729.09;5067565;28;19949;-82
2021/08/17 00:21:40;;;;;;;;;;;;;;;12.45;77.17;96726.34;5058052;28;19952;-80
2021/08/17 00:24:06;;;;;;;;;;;;;;;12.46;78.12;96727.94;5103038;28;20364;-79
2021/08/17 00:26:32;;;;;;;;;;;;;;;12.49;77.50;96729.31;5100091;28;20000;-80
2021/08/17 00:28:58;;;;;;;;;;;;;;;12.54;78.09;96734.72;5103656;28;19963;-80
2021/08/17 00:31:24;;;;;;;;;;;;;;;12.59;77.00;96735.63;5104920;28;20012;-80
2021/08/17 00:33:50;;;;;;;;;;;;;;;12.61;76.53;96753.03;5066790;28;19949;-80
2021/08/17 00:36:16;;;;;;;;;;;;;;;12.61;77.44;96756.47;5081804;28;19966;-82
2021/08/17 00:38:41;;;;;;;;;;;;;;;12.61;76.24;96755.66;5090469;28;20054;-82
2021/08/17 00:41:08;;;;;;;;;;;;;;;12.64;77.59;96765.75;5085788;28;20087;-82
2021/08/17 00:43:34;;;;;;;;;;;;;;;12.67;77.04;96768.72;5099765;28;19963;-81
2021/08/17 00:46:03;;;;;;;;;;;;;;;12.70;76.69;96770.91;5106303;28;20343;-81
2021/08/17 00:48:28;;;;;;;;;;;;;;;12.72;77.23;96775.94;5109236;28;20317;-79
2021/08/17 00:50:54;;;;;;;;;;;;;;;12.73;77.09;96772.31;5101480;28;19954;-79
2021/08/17 00:53:21;;;;;;;;;;;;;;;12.73;77.21;96775.75;5103478;28;20005;-80
2021/08/17 00:55:48;;;;;;;;;;;;;;;12.72;76.76;96775.94;5065561;28;19978;-79
2021/08/17 00:58:14;;;;;;;;;;;;;;;12.72;76.96;96768.06;5090806;28;20327;-80
2021/08/17 01:00:40;;;;;;;;;;;;;;;12.68;76.70;96765.09;5102256;28;19989;-79
2021/08/17 01:03:06;;;;;;;;;;;;;;;12.61;76.47;96766.19;5100659;28;20400;-81
2021/08/17 01:05:32;;;;;;;;;;;;;;;12.50;75.94;96768.53;5074009;28;19954;-80
2021/08/17 01:07:59;;;;;;;;;;;;;;;12.39;76.76;96774.56;5093890;28;19966;-80
2021/08/17 01:10:25;;;;;;;;;;;;;;;12.26;75.09;96761.56;5103021;28;19952;-80
2021/08/17 01:12:51;;;;;;;;;;;;;;;12.16;76.24;96775.25;5109182;28;19958;-79
2021/08/17 01:15:17;;;;;;;;;;;;;;;12.10;73.50;96771.66;5067316;28;19977;-79
2021/08/17 01:17:43;;;;;;;;;;;;;;;12.00;72.21;96760.84;5091354;28;19969;-80
2021/08/17 01:20:13;;;;;;;;;;;;;;;11.91;74.74;96775.31;5106497;28;20081;-79
2021/08/17 01:22:40;;;;;;;;;;;;;;;11.89;75.24;96778.13;5102956;28;20485;-79
2021/08/17 01:25:07;;;;;;;;;;;;;;;11.91;75.54;96786.59;5107854;28;19961;-79
2021/08/17 01:27:32;;;;;;;;;;;;;;;11.88;74.92;96788.81;5110256;28;19960;-79
2021/08/17 01:29:58;;;;;;;;;;;;;;;11.85;75.91;96795.31;5101229;28;19995;-79
2021/08/17 01:32:24;;;;;;;;;;;;;;;11.83;75.70;96797.38;5088456;28;19984;-79
2021/08/17 01:34:51;;;;;;;;;;;;;;;11.85;75.50;96794.53;5090899;28;20421;-79
2021/08/17 01:37:17;;;;;;;;;;;;;;;11.83;75.73;96792.13;5090722;28;19951;-80
2021/08/17 01:39:43;;;;;;;;;;;;;;;11.83;75.59;96805.25;5085054;28;19956;-79
2021/08/17 01:42:09;;;;;;;;;;;;;;;11.81;75.80;96804.66;5087939;28;19953;-80
2021/08/17 01:44:34;;;;;;;;;;;;;;;11.83;75.23;96812.34;5087694;28;19961;-79
2021/08/17 01:47:00;;;;;;;;;;;;;;;11.82;75.21;96821.22;5092325;28;20096;-80
2021/08/17 01:49:26;;;;;;;;;;;;;;;11.81;75.21;96820.44;5105642;28;20385;-80
2021/08/17 01:51:52;;;;;;;;;;;;;;;11.78;75.58;96821.69;5082896;28;19948;-80
2021/08/17 01:54:18;;;;;;;;;;;;;;;11.78;75.18;96820.88;5089106;28;19989;-80
2021/08/17 01:56:45;;;;;;;;;;;;;;;11.74;75.33;96823.13;5089453;28;19975;-80
2021/08/17 01:59:13;;;;;;;;;;;;;;;11.72;74.95;96816.47;5088325;28;19950;-80
2021/08/17 02:01:41;;;;;;;;;;;;;;;11.69;75.00;96822.16;5105972;28;19955;-79
2021/08/17 02:04:07;;;;;;;;;;;;;;;11.65;74.81;96828.84;5086278;28;19953;-80
2021/08/17 02:06:32;;;;;;;;;;;;;;;11.62;75.24;96826.66;5111294;28;20384;-80
2021/08/17 02:08:58;;;;;;;;;;;;;;;11.61;74.89;96831.09;5107895;28;19977;-81
2021/08/17 02:11:24;;;;;;;;;;;;;;;11.57;74.92;96827.31;5101002;28;20050;-81
2021/08/17 02:13:50;;;;;;;;;;;;;;;11.55;75.21;96834.59;5108312;28;20334;-80
2021/08/17 02:16:16;;;;;;;;;;;;;;;11.50;75.19;96835.22;5091636;28;19966;-81
2021/08/17 02:18:42;;;;;;;;;;;;;;;11.48;75.01;96836.47;5106877;28;19956;-80
2021/08/17 02:21:08;;;;;;;;;;;;;;;11.43;74.84;96842.34;5099560;28;20048;-81
2021/08/17 02:23:34;;;;;;;;;;;;;;;11.41;75.01;96844.41;5101584;28;19976;-83
2021/08/17 02:26:00;;;;;;;;;;;;;;;11.39;75.12;96838.56;5071151;28;19966;-81
2021/08/17 02:28:26;;;;;;;;;;;;;;;11.35;75.08;96842.63;5066392;28;19948;-81
2021/08/17 02:30:53;;;;;;;;;;;;;;;11.32;75.05;96838.59;5078903;28;20018;-81
2021/08/17 02:33:19;;;;;;;;;;;;;;;11.29;75.10;96848.72;5109189;28;19951;-82
2021/08/17 02:35:46;;;;;;;;;;;;;;;11.26;75.12;96847.31;5087422;28;19997;-82
2021/08/17 02:38:12;;;;;;;;;;;;;;;11.24;75.50;96857.22;5106551;28;19948;-82
2021/08/17 02:40:39;;;;;;;;;;;;;;;11.21;75.29;96862.88;5069882;28;20416;-82
2021/08/17 02:43:05;;;;;;;;;;;;;;;11.17;75.32;96873.03;5069238;28;19956;-80
2021/08/17 02:45:31;;;;;;;;;;;;;;;11.15;75.53;96869.00;5067078;28;19964;-79
2021/08/17 02:47:57;;;;;;;;;;;;;;;11.13;75.24;96876.28;5083663;28;19960;-79
2021/08/17 02:50:23;;;;;;;;;;;;;;;11.10;75.41;96874.88;5105598;28;19960;-80
2021/08/17 02:52:49;;;;;;;;;;;;;;;11.07;75.29;96874.50;5097993;28;20430;-80
2021/08/17 02:55:15;;;;;;;;;;;;;;;11.05;75.28;96868.66;5106352;28;20008;-78
2021/08/17 02:57:51;;;;;;;;;;;;;;;11.00;75.46;96866.66;5103274;28;19957;-79
2021/08/17 03:00:17;;;;;;;;;;;;;;;10.98;75.42;96866.03;5088033;28;19949;-80
2021/08/17 03:02:43;;;;;;;;;;;;;;;10.95;75.46;96866.47;5073228;28;19954;-80
2021/08/17 03:05:09;;;;;;;;;;;;;;;10.93;75.44;96865.88;5104615;28;20302;-79
2021/08/17 03:07:35;;;;;;;;;;;;;;;10.89;75.51;96872.56;5106005;28;20408;-78
2021/08/17 03:10:01;;;;;;;;;;;;;;;10.85;75.59;96866.13;5083680;28;20040;-81
2021/08/17 03:12:27;;;;;;;;;;;;;;;10.83;75.71;96871.56;5067360;28;19954;-82
2021/08/17 03:14:53;;;;;;;;;;;;;;;10.79;75.44;96875.63;5086559;28;20009;-82
2021/08/17 03:17:19;;;;;;;;;;;;;;;10.75;75.55;96877.03;5086029;28;19962;-81
2021/08/17 03:19:45;;;;;;;;;;;;;;;10.72;75.61;96873.03;5087364;28;19952;-82
2021/08/17 03:22:11;;;;;;;;;;;;;;;10.69;75.60;96873.47;5070747;28;19955;-82
2021/08/17 03:24:37;;;;;;;;;;;;;;;10.66;75.60;96881.72;5089119;28;19954;-82
2021/08/17 03:27:03;;;;;;;;;;;;;;;10.63;75.26;96869.03;5081921;28;19950;-81
2021/08/17 03:29:29;;;;;;;;;;;;;;;10.62;75.69;96869.25;5105578;28;20490;-79
2021/08/17 03:31:55;;;;;;;;;;;;;;;10.60;75.96;96869.44;5103105;28;19993;-79
2021/08/17 03:34:21;;;;;;;;;;;;;;;10.60;76.15;96866.03;5085571;28;20002;-79
2021/08/17 03:36:47;;;;;;;;;;;;;;;10.57;76.07;96867.25;5110017;28;19965;-80
2021/08/17 03:39:12;;;;;;;;;;;;;;;10.55;76.29;96864.03;5098398;28;20005;-79
2021/08/17 03:41:38;;;;;;;;;;;;;;;10.53;76.26;96866.03;5103518;28;20075;-79
2021/08/17 03:44:04;;;;;;;;;;;;;;;10.50;75.83;96871.72;5105363;28;20310;-78
2021/08/17 03:46:30;;;;;;;;;;;;;;;10.50;76.16;96869.09;5101472;28;19960;-79
2021/08/17 03:48:56;;;;;;;;;;;;;;;10.49;76.04;96872.72;5068450;28;19954;-80
2021/08/17 03:51:22;;;;;;;;;;;;;;;10.47;76.27;96877.34;5087155;28;20039;-79
2021/08/17 03:53:48;;;;;;;;;;;;;;;10.44;75.99;96881.22;5107436;28;20037;-79
2021/08/17 03:56:14;;;;;;;;;;;;;;;10.42;75.84;96883.22;5089043;28;19973;-79
2021/08/17 03:58:40;;;;;;;;;;;;;;;10.40;76.19;96879.22;5086278;28;20374;-79
2021/08/17 04:01:06;;;;;;;;;;;;;;;10.40;75.93;96885.25;5098599;28;20052;-79
2021/08/17 04:03:31;;;;;;;;;;;;;;;10.39;76.26;96888.88;5108719;28;20009;-80
2021/08/17 04:05:57;;;;;;;;;;;;;;;10.38;76.11;96883.84;5104043;28;19955;-79
2021/08/17 04:08:23;;;;;;;;;;;;;;;10.36;76.25;96889.28;5104806;28;19987;-79
2021/08/17 04:10:50;;;;;;;;;;;;;;;10.36;76.27;96891.91;5102792;28;19960;-78
2021/08/17 04:13:16;;;;;;;;;;;;;;;10.35;76.04;96896.34;5106439;28;19951;-78
2021/08/17 04:15:42;;;;;;;;;;;;;;;10.35;76.33;96900.78;5101261;28;19985;-78
2021/08/17 04:18:08;;;;;;;;;;;;;;;10.33;76.23;96901.00;5062898;28;20044;-75
2021/08/17 04:20:35;;;;;;;;;;;;;;;10.31;76.05;96895.16;5086213;28;20323;-75
2021/08/17 04:23:02;;;;;;;;;;;;;;;10.32;76.06;96896.75;5086021;28;19960;-75
2021/08/17 04:25:28;;;;;;;;;;;;;;;10.31;76.32;96899.56;5109553;28;19952;-75
2021/08/17 04:27:54;;;;;;;;;;;;;;;10.31;76.46;96899.56;5102610;28;19984;-75
2021/08/17 04:30:19;;;;;;;;;;;;;;;10.31;76.56;96902.19;5098073;28;20004;-76
2021/08/17 04:32:45;;;;;;;;;;;;;;;10.28;76.70;96900.75;5086204;28;19980;-76
2021/08/17 04:35:12;;;;;;;;;;;;;;;10.28;77.03;96906.00;5103726;28;20394;-76
2021/08/17 04:37:38;;;;;;;;;;;;;;;10.28;76.87;96908.63;5110511;28;20346;-76
2021/08/17 04:40:04;;;;;;;;;;;;;;;10.28;76.80;96906.00;5103489;28;19951;-75
2021/08/17 04:42:30;;;;;;;;;;;;;;;10.27;76.71;96908.84;5107977;28;19957;-74
2021/08/17 04:44:56;;;;;;;;;;;;;;;10.27;76.95;96907.03;5092245;28;20056;-75
2021/08/17 04:47:22;;;;;;;;;;;;;;;10.28;76.80;96919.09;5110937;28;20465;-75
2021/08/17 04:49:48;;;;;;;;;;;;;;;10.28;76.80;96926.16;5087934;28;20005;-75
2021/08/17 04:52:14;;;;;;;;;;;;;;;10.27;76.81;96909.66;5087935;28;19989;-76
2021/08/17 04:54:39;;;;;;;;;;;;;;;10.36;76.83;96924.16;5073941;28;19956;-74
2021/08/17 04:57:05;;;;;;;;;;;;;;;10.54;76.34;96915.69;5077218;28;20060;-73
2021/08/17 04:59:31;;;;;;;;;;;;;;;10.80;75.51;96918.44;5102601;28;20040;-74
2021/08/17 05:01:57;;;;;;;;;;;;;;;11.07;74.80;96917.31;5103563;28;20030;-76
2021/08/17 05:04:23;;;;;;;;;;;;;;;11.39;74.70;96912.06;5111967;28;19949;-76
2021/08/17 05:06:51;;;;;;;;;;;;;;;11.67;74.20;96916.13;5089876;28;20050;-76
2021/08/17 05:09:17;;;;;;;;;;;;;;;11.97;73.70;96922.41;5084946;28;19965;-76
2021/08/17 05:11:42;;;;;;;;;;;;;;;12.25;72.82;96921.16;5109288;28;19961;-76
2021/08/17 05:14:08;;;;;;;;;;;;;;;12.49;72.04;96923.97;5108383;28;20327;-76
2021/08/17 05:16:34;;;;;;;;;;;;;;;12.77;70.95;96913.75;5109522;28;20100;-76
2021/08/17 05:19:00;;;;;;;;;;;;;;;12.98;70.84;96930.91;5086011;28;19995;-76
2021/08/17 05:21:26;;;;;;;;;;;;;;;13.26;70.29;96928.75;5106677;28;19973;-77
2021/08/17 05:23:52;;;;;;;;;;;;;;;13.32;69.85;96939.25;5092980;28;20463;-76
2021/08/17 05:26:18;;;;;;;;;;;;;;;13.25;69.49;96940.31;5092599;28;19976;-76
2021/08/17 05:28:44;;;;;;;;;;;;;;;13.17;68.77;96936.16;5101464;28;20067;-76
2021/08/17 05:31:10;;;;;;;;;;;;;;;13.07;68.89;96934.06;5100436;28;20072;-76
2021/08/17 05:33:36;;;;;;;;;;;;;;;12.93;69.19;96936.03;5105729;28;20332;-76
2021/08/17 05:36:01;;;;;;;;;;;;;;;13.00;69.76;96943.88;5088215;28;19998;-77
2021/08/17 05:38:28;;;;;;;;;;;;;;;13.39;69.25;96942.56;5104130;28;19968;-76
2021/08/17 05:40:54;;;;;;;;;;;;;;;13.85;68.18;96936.88;5103707;28;20451;-77
2021/08/17 05:43:20;;;;;;;;;;;;;;;14.30;67.43;96933.69;5088474;28;19972;-76
2021/08/17 05:45:46;;;;;;;;;;;;;;;14.74;66.43;96942.09;5112170;28;20419;-78
2021/08/17 05:48:12;;;;;;;;;;;;;;;15.16;65.63;96932.13;5066044;28;19972;-79
2021/08/17 05:50:38;;;;;;;;;;;;;;;15.58;64.84;96934.50;5104308;28;19985;-80
2021/08/17 05:53:04;;;;;;;;;;;;;;;15.88;63.59;96920.22;5091307;28;19968;-78
2021/08/17 05:55:30;;;;;;;;;;;;;;;16.19;62.92;96926.78;5110001;28;20026;-79
2021/08/17 05:57:57;;;;;;;;;;;;;;;16.38;60.99;96900.06;5083198;28;19982;-79
2021/08/17 06:00:23;;;;;;;;;;;;;;;16.61;61.16;96907.78;5101192;28;20331;-79
2021/08/17 06:02:49;;;;;;;;;;;;;;;16.86;61.13;96905.72;5102883;28;19972;-79
2021/08/17 06:05:15;;;;;;;;;;;;;;;16.90;59.28;96877.69;5084517;28;19973;-79
2021/08/17 06:07:45;;;;;;;;;;;;;;;17.12;60.75;96898.88;5089919;28;19976;-79
2021/08/17 06:10:11;;;;;;;;;;;;;;;17.39;60.08;96896.25;5107260;28;19968;-78
2021/08/17 06:12:37;;;;;;;;;;;;;;;17.59;59.11;96890.31;5101630;28;20059;-79
2021/08/17 06:15:03;;;;;;;;;;;;;;;17.69;59.21;96894.94;5106567;28;20482;-79
2021/08/17 06:17:29;;;;;;;;;;;;;;;17.73;57.17;96880.13;5100622;28;20011;-78
2021/08/17 06:19:55;;;;;;;;;;;;;;;17.57;56.56;96882.63;5102444;28;20424;-78
2021/08/17 06:22:21;;;;;;;;;;;;;;;17.42;57.63;96896.53;5109971;28;20071;-79
2021/08/17 06:24:46;;;;;;;;;;;;;;;17.50;59.70;96913.84;5086128;28;20459;-78
2021/08/17 06:27:12;;;;;;;;;;;;;;;17.33;57.24;96887.44;5116215;28;19976;-78
2021/08/17 06:29:38;;;;;;;;;;;;;;;17.32;57.75;96892.97;5105676;28;20019;-79
2021/08/17 06:32:04;;;;;;;;;;;;;;;17.20;58.47;96899.25;5102361;28;19979;-78
2021/08/17 06:34:30;;;;;;;;;;;;;;;17.36;59.03;96910.78;5092077;28;19969;-78
2021/08/17 06:36:56;;;;;;;;;;;;;;;17.35;56.59;96895.16;5086684;28;20095;-78
2021/08/17 06:39:22;;;;;;;;;;;;;;;17.34;58.04;96907.59;5082186;28;20073;-78
2021/08/17 06:41:48;;;;;;;;;;;;;;;17.41;56.90;96884.34;5102228;28;19973;-78
2021/08/17 06:44:14;;;;;;;;;;;;;;;17.13;57.86;96908.41;5106017;28;19969;-78
2021/08/17 06:46:40;;;;;;;;;;;;;;;17.06;57.23;96905.16;5109636;28;20456;-78
2021/08/17 06:49:06;;;;;;;;;;;;;;;17.07;59.34;96912.06;5091052;28;19971;-79
2021/08/17 06:51:31;;;;;;;;;;;;;;;17.09;58.82;96917.91;5073947;28;20015;-79
2021/08/17 06:53:58;;;;;;;;;;;;;;;17.03;58.86;96911.78;5102557;28;19968;-79
2021/08/17 06:56:24;;;;;;;;;;;;;;;17.19;59.71;96926.78;5105397;28;19987;-79
2021/08/17 06:58:50;;;;;;;;;;;;;;;17.34;58.62;96914.75;5105902;28;19980;-79
2021/08/17 07:01:16;;;;;;;;;;;;;;;17.51;58.62;96918.09;5107385;28;19976;-79
2021/08/17 07:03:42;;;;;;;;;;;;;;;17.70;58.03;96926.53;5104457;28;20004;-80
2021/08/17 07:06:08;;;;;;;;;;;;;;;17.87;56.96;96907.84;5099930;28;20053;-79
2021/08/17 07:08:34;;;;;;;;;;;;;;;17.85;56.03;96902.00;5105694;28;20416;-79
2021/08/17 07:11:00;;;;;;;;;;;;;;;17.92;57.30;96918.50;5109237;28;19991;-79
2021/08/17 07:13:27;;;;;;;;;;;;;;;17.92;57.12;96915.84;5110274;28;20479;-79
2021/08/17 07:15:53;;;;;;;;;;;;;;;17.87;55.74;96912.34;5102104;28;19999;-79
2021/08/17 07:18:18;;;;;;;;;;;;;;;17.53;55.47;96900.06;5086569;28;19969;-79
2021/08/17 07:20:44;;;;;;;;;;;;;;;17.42;57.25;96925.69;5110761;28;20025;-78
2021/08/17 07:23:10;;;;;;;;;;;;;;;17.54;56.86;96922.91;5081273;28;20018;-80
2021/08/17 07:25:37;;;;;;;;;;;;;;;17.78;57.93;96922.59;5111894;28;19975;-79
2021/08/17 07:28:03;;;;;;;;;;;;;;;17.87;56.45;96905.22;5084959;28;20443;-79
2021/08/17 07:30:29;;;;;;;;;;;;;;;17.88;56.34;96906.00;5100198;28;20340;-77
2021/08/17 07:32:55;;;;;;;;;;;;;;;17.59;54.76;96893.78;5104686;28;19976;-79
2021/08/17 07:35:21;;;;;;;;;;;;;;;17.41;57.06;96923.31;5077451;28;20003;-81
2021/08/17 07:37:48;;;;;;;;;;;;;;;17.21;58.00;96943.22;5108610;28;20079;-79
2021/08/17 07:40:14;;;;;;;;;;;;;;;17.19;60.24;96969.19;5105503;28;19977;-80
2021/08/17 07:42:40;;;;;;;;;;;;;;;17.00;60.29;96965.25;5066313;28;19972;-79
2021/08/17 07:45:10;;;;;;;;;;;;;;;16.67;59.85;96963.44;5084795;28;19964;-79
2021/08/17 07:47:36;;;;;;;;;;;;;;;16.36;60.57;96974.41;5103637;28;19981;-81
2021/08/17 07:50:03;;;;;;;;;;;;;;;16.58;59.13;96949.84;5086810;28;19980;-79
2021/08/17 07:52:30;;;;;;;;;;;;;;;17.02;58.34;96944.59;5104818;28;19976;-79
2021/08/17 07:54:56;;;;;;;;;;;;;;;17.38;57.04;96926.44;5087256;28;19975;-80
2021/08/17 07:57:22;;;;;;;;;;;;;;;17.62;58.18;96942.88;5063838;28;20363;-79
2021/08/17 07:59:48;;;;;;;;;;;;;;;17.72;55.77;96921.72;5087815;28;19972;-80
2021/08/17 08:02:14;;;;;;;;;;;;;;;17.75;55.79;96912.50;5103220;28;19972;-80
2021/08/17 08:04:40;;;;;;;;;;;;;;;17.78;55.80;96915.44;5095361;28;19968;-80
2021/08/17 08:07:06;;;;;;;;;;;;;;;17.61;55.44;96904.94;5068061;28;20067;-80
2021/08/17 08:09:32;;;;;;;;;;;;;;;17.55;53.09;96895.31;5097534;28;20343;-80
2021/08/17 08:11:58;;;;;;;;;;;;;;;17.84;56.12;96914.44;5105607;28;19969;-79
2021/08/17 08:14:23;;;;;;;;;;;;;;;18.14;56.29;96923.72;5089576;28;20068;-80
2021/08/17 08:16:50;;;;;;;;;;;;;;;18.34;56.70;96916.94;5087623;28;19992;-80
2021/08/17 08:19:16;;;;;;;;;;;;;;;18.44;54.86;96901.09;5100580;28;19964;-80
2021/08/17 08:21:42;;;;;;;;;;;;;;;18.44;54.47;96901.09;5080411;28;19975;-80
2021/08/17 08:24:07;;;;;;;;;;;;;;;18.56;54.38;96906.19;5105236;28;20420;-80
2021/08/17 08:26:33;;;;;;;;;;;;;;;18.74;51.12;96873.06;5088714;28;19972;-80
2021/08/17 08:28:59;;;;;;;;;;;;;;;18.90;52.15;96881.91;5078748;28;19979;-80
2021/08/17 08:31:25;;;;;;;;;;;;;;;19.02;53.22;96904.59;5087923;28;20428;-80
2021/08/17 08:33:51;;;;;;;;;;;;;;;18.79;46.92;96849.19;5095049;28;20060;-81
2021/08/17 08:36:18;;;;;;;;;;;;;;;18.52;52.46;96899.78;5091589;28;19991;-81
2021/08/17 08:38:44;;;;;;;;;;;;;;;18.47;51.41;96895.25;5071169;28;19991;-81
2021/08/17 08:41:15;;;;;;;;;;;;;;;18.36;51.71;96894.38;5085229;28;19972;-81
2021/08/17 08:43:42;;;;;;;;;;;;;;;18.18;50.97;96892.16;5084548;28;19980;-81
2021/08/17 08:46:11;;;;;;;;;;;;;;;18.05;52.26;96907.44;5100071;28;19980;-82
2021/08/17 08:48:37;;;;;;;;;;;;;;;17.94;52.43;96905.00;5086195;28;19960;-82
2021/08/17 08:51:03;;;;;;;;;;;;;;;17.73;54.26;96928.66;5059825;28;20328;-80
2021/08/17 08:53:29;;;;;;;;;;;;;;;17.58;55.07;96937.28;5084375;28;19971;-80
2021/08/17 08:55:55;;;;;;;;;;;;;;;17.46;54.04;96931.31;5048232;28;20038;-81
2021/08/17 08:58:21;;;;;;;;;;;;;;;17.27;51.28;96908.84;5102054;28;20054;-81
2021/08/17 09:00:47;;;;;;;;;;;;;;;17.20;53.01;96924.94;5068095;28;19989;-81
2021/08/17 09:03:13;;;;;;;;;;;;;;;17.15;53.24;96928.31;5083774;28;19994;-81
2021/08/17 09:05:52;;;;;;;;;;;;;;;17.12;53.37;96928.03;5103547;28;20395;-81
2021/08/17 09:08:20;;;;;;;;;;;;;;;17.25;54.51;96936.38;5088892;28;20428;-83
2021/08/17 09:10:46;;;;;;;;;;;;;;;17.58;53.21;96912.59;5081276;28;19964;-81
2021/08/17 09:13:12;;;;;;;;;;;;;;;17.72;50.81;96889.91;5048861;28;19990;-81
2021/08/17 09:15:38;;;;;;;;;;;;;;;17.75;50.29;96902.69;5098001;28;19992;-80
2021/08/17 09:18:08;;;;;;;;;;;;;;;17.68;50.01;96903.94;5104397;28;19993;-81
2021/08/17 09:20:44;;;;;;;;;;;;;;;17.57;52.72;96922.41;5090369;28;20312;-81
2021/08/17 09:23:23;;;;;;;;;;;;;;;17.47;54.74;96932.94;5069360;28;19964;-81
2021/08/17 09:25:49;;;;;;;;;;;;;;;17.35;50.83;96893.28;5089095;28;19975;-80
2021/08/17 09:28:28;;;;;;;;;;;;;;;17.24;54.11;96915.47;5089198;28;19973;-81
2021/08/17 09:30:54;;;;;;;;;;;;;;;17.14;54.55;96926.72;5069478;28;19972;-81
2021/08/17 09:33:20;;;;;;;;;;;;;;;17.11;55.59;96924.56;5093586;28;19976;-82
2021/08/17 09:35:46;;;;;;;;;;;;;;;17.09;55.40;96928.50;5112855;28;20334;-81
2021/08/17 09:38:13;;;;;;;;;;;;;;;17.07;53.33;96910.19;5091877;28;19988;-81
2021/08/17 09:40:39;;;;;;;;;;;;;;;17.10;52.38;96907.06;5103312;28;19968;-81
2021/08/17 09:43:31;;;;;;;;;;;;;;;17.31;54.99;96912.59;5103297;28;20453;-80
2021/08/17 09:46:07;;;;;;;;;;;;;;;17.41;52.99;96894.94;5079141;28;20005;-81
2021/08/17 09:48:33;;;;;;;;;;;;;;;17.48;51.97;96896.59;5090663;28;19995;-80
2021/08/17 09:50:59;;;;;;;;;;;;;;;17.48;54.54;96912.50;5084096;28;20022;-80
2021/08/17 09:53:26;;;;;;;;;;;;;;;17.47;53.48;96900.28;5083403;28;20088;-80
2021/08/17 09:55:57;;;;;;;;;;;;;;;17.47;56.04;96913.53;5091318;28;20001;-81
2021/08/17 09:58:23;;;;;;;;;;;;;;;17.54;54.76;96898.25;5090608;28;20020;-81
2021/08/17 10:00:50;;;;;;;;;;;;;;;17.76;51.31;96869.78;5090197;28;19997;-80
2021/08/17 10:03:17;;;;;;;;;;;;;;;17.94;53.50;96884.56;5082029;28;19997;-80
2021/08/17 10:05:43;;;;;;;;;;;;;;;18.09;50.71;96862.63;5098152;28;20012;-81
2021/08/17 10:08:09;;;;;;;;;;;;;;;18.30;49.55;96857.44;5085922;28;20443;-81
2021/08/17 10:10:36;;;;;;;;;;;;;;;18.40;52.02;96860.94;5088942;28;20003;-81
2021/08/17 10:13:02;;;;;;;;;;;;;;;18.37;50.60;96847.38;5106641;28;20001;-81
2021/08/17 10:15:28;;;;;;;;;;;;;;;18.34;52.29;96869.94;5088458;28;20015;-81
2021/08/17 10:18:00;;;;;;;;;;;;;;;18.15;51.03;96855.50;5107688;28;20017;-81
2021/08/17 10:20:27;;;;;;;;;;;;;;;18.07;51.35;96851.47;5072451;28;20002;-81
2021/08/17 10:22:53;;;;;;;;;;;;;;;18.17;51.22;96853.41;5086286;28;20001;-81
2021/08/17 10:25:19;;;;;;;;;;;;;;;18.45;51.48;96852.22;5106418;28;20002;-81
2021/08/17 10:27:45;;;;;;;;;;;;;;;18.68;51.44;96851.00;5108797;28;19995;-81
2021/08/17 10:30:14;;;;;;;;;;;;;;;18.83;51.45;96842.31;5109430;28;20033;-83
2021/08/17 10:32:40;;;;;;;;;;;;;;;18.82;50.98;96844.16;5069932;28;20001;-82
2021/08/17 10:35:06;;;;;;;;;;;;;;;18.79;51.08;96841.22;5082179;28;20455;-83
2021/08/17 10:37:34;;;;;;;;;;;;;;;18.79;51.30;96850.00;5108370;28;20010;-83
2021/08/17 10:40:00;;;;;;;;;;;;;;;18.77;46.88;96817.56;5088957;28;20005;-82
2021/08/17 10:42:26;;;;;;;;;;;;;;;18.74;50.71;96831.34;5075095;28;20001;-84
2021/08/17 10:44:53;;;;;;;;;;;;;;;18.87;48.98;96814.16;5106078;28;20027;-83
2021/08/17 10:47:33;;;;;;;;;;;;;;;18.94;48.67;96808.56;5069224;28;19996;-83
2021/08/17 10:49:59;;;;;;;;;;;;;;;18.97;48.43;96797.44;5062789;28;19996;-83
2021/08/17 10:52:35;;;;;;;;;;;;;;;18.80;47.79;96808.28;5087959;28;20000;-83
2021/08/17 10:55:20;;;;;;;;;;;;;;;18.64;48.22;96812.72;5064677;28;19993;-83
2021/08/17 10:57:57;;;;;;;;;;;;;;;18.55;49.67;96841.63;5085633;28;20427;-82
2021/08/17 11:00:42;;;;;;;;;;;;;;;18.48;48.94;96824.34;5106624;28;19968;-83
2021/08/17 11:03:07;;;;;;;;;;;;;;;18.42;49.39;96829.63;5107878;28;19980;-83
2021/08/17 11:05:52;;;;;;;;;;;;;;;18.40;50.80;96825.63;5066632;28;20047;-82
2021/08/17 11:08:31;;;;;;;;;;;;;;;18.46;50.34;96824.59;5056250;28;20000;-85
2021/08/17 11:10:58;;;;;;;;;;;;;;;18.73;50.70;96813.81;5072075;28;19994;-83
2021/08/17 11:13:25;;;;;;;;;;;;;;;19.09;50.17;96813.13;5066782;28;20457;-83
2021/08/17 11:16:07;;;;;;;;;;;;;;;19.33;47.53;96802.81;5088003;28;19977;-83
2021/08/17 11:18:53;;;;;;;;;;;;;;;19.50;49.76;96811.31;5067381;28;20345;-83
2021/08/17 11:21:29;;;;;;;;;;;;;;;19.52;43.76;96816.38;5081284;28;19976;-84
2021/08/17 11:24:05;;;;;;;;;;;;;;;19.55;47.87;96837.13;5071246;28;19995;-84
2021/08/17 11:26:31;;;;;;;;;;;;;;;19.65;48.20;96837.13;5067631;28;20431;-84
2021/08/17 11:28:57;;;;;;;;;;;;;;;19.65;47.24;96835.28;5103873;28;19968;-84
2021/08/17 11:31:23;;;;;;;;;;;;;;;19.76;45.99;96800.69;5103544;28;19977;-84
2021/08/17 11:33:49;;;;;;;;;;;;;;;19.87;45.85;96821.72;5089505;28;19976;-84
2021/08/17 11:36:24;;;;;;;;;;;;;;;19.94;44.68;96799.34;5061051;28;19973;-84
2021/08/17 11:38:50;;;;;;;;;;;;;;;20.04;45.71;96808.09;5085371;28;19968;-84
2021/08/17 11:41:29;;;;;;;;;;;;;;;20.22;47.67;96828.03;5087493;28;19986;-84
2021/08/17 11:44:11;;;;;;;;;;;;;;;20.36;45.17;96808.81;5069402;28;19972;-84
2021/08/17 11:46:36;;;;;;;;;;;;;;;20.30;46.70;96829.34;5065009;28;20450;-83
2021/08/17 11:49:19;;;;;;;;;;;;;;;20.33;46.77;96830.69;5086928;28;19979;-84
2021/08/17 11:51:45;;;;;;;;;;;;;;;20.57;45.07;96821.00;5096775;28;20417;-84
2021/08/17 11:54:14;;;;;;;;;;;;;;;20.72;44.26;96814.81;5086151;28;19972;-83
2021/08/17 13:23:02;;;;;;;;;;;;;;;20.81;42.68;96753.72;5091336;27;20017;-77
2021/08/17 13:25:28;;;;;;;;;;;;;;;20.70;41.73;96741.56;5090801;28;19945;-77
2021/08/17 13:27:54;;;;;;;;;;;;;;;20.67;41.24;96743.69;5090751;28;19952;-77
2021/08/17 13:30:20;;;;;;;;;;;;;;;20.61;40.85;96733.34;5090780;28;19956;-77
2021/08/17 13:32:46;;;;;;;;;;;;;;;20.58;42.80;96753.34;5089866;28;19966;-77
2021/08/17 13:35:12;;;;;;;;;;;;;;;20.60;42.81;96755.72;5090982;28;19971;-76
2021/08/17 13:37:38;;;;;;;;;;;;;;;20.60;45.67;96782.38;5090628;28;19995;-77
2021/08/17 13:40:05;;;;;;;;;;;;;;;20.58;43.88;96774.66;5090369;28;20067;-77
2021/08/17 13:42:31;;;;;;;;;;;;;;;20.40;41.29;96754.72;5090524;28;20481;-78
2021/08/17 13:44:57;;;;;;;;;;;;;;;20.28;42.19;96756.91;5090586;28;19969;-77
2021/08/17 13:47:23;;;;;;;;;;;;;;;20.25;43.93;96765.44;5090400;28;19969;-78
2021/08/17 13:49:49;;;;;;;;;;;;;;;20.27;44.76;96768.63;5090381;28;19976;-78
2021/08/17 13:52:16;;;;;;;;;;;;;;;20.24;43.88;96754.00;5090264;28;19969;-77
2021/08/17 13:54:43;;;;;;;;;;;;;;;20.17;41.26;96726.84;5090113;28;20464;-78
2021/08/17 13:57:08;;;;;;;;;;;;;;;20.10;44.07;96749.53;5090268;28;19973;-78
2021/08/17 13:59:34;;;;;;;;;;;;;;;20.07;42.66;96738.34;5090333;28;20395;-78
2021/08/17 14:02:00;;;;;;;;;;;;;;;20.08;43.15;96733.81;5089989;28;20087;-78
2021/08/17 14:04:29;;;;;;;;;;;;;;;20.11;44.46;96748.44;5090346;28;19969;-78
2021/08/17 14:06:55;;;;;;;;;;;;;;;20.11;44.15;96745.78;5089839;28;19973;-78
2021/08/17 14:09:21;;;;;;;;;;;;;;;20.16;43.97;96743.91;5090517;28;19969;-78
2021/08/17 14:11:47;;;;;;;;;;;;;;;20.16;43.29;96740.44;5090061;28;19973;-77
2021/08/17 14:14:13;;;;;;;;;;;;;;;20.16;44.47;96735.09;5090026;28;19972;-78